sensor_id;sensor_type;location;lat;lon;timestamp;P1;durP1;ratioP1;P2;durP2;ratioP2
65753;SDS011;69207;47.502;18.940;2023-09-12T00:00:52;7.82;;;4.07;;
65753;SDS011;69207;47.502;18.940;2023-09-12T00:01:55;13.13;;;4.35;;
65753;SDS011;69207;47.502;18.940;2023-09-12T00:02:58;6.32;;;4.20;;
65753;SDS011;69207;47.502;18.940;2023-09-12T00:04:01;6.95;;;3.97;;
65753;SDS011;69207;47.502;18.940;2023-09-12T00:05:05;7.93;;;4.47;;
65753;SDS011;69207;47.502;18.940;2023-09-12T00:06:08;11.70;;;4.70;;
65753;SDS011;69207;47.502;18.940;2023-09-12T00:07:11;7.22;;;4.35;;
65753;SDS011;69207;47.502;18.940;2023-09-12T00:08:14;8.70;;;4.65;;
65753;SDS011;69207;47.502;18.940;2023-09-12T00:09:17;8.43;;;4.25;;
65753;SDS011;69207;47.502;18.940;2023-09-12T00:10:20;7.43;;;4.03;;
65753;SDS011;69207;47.502;18.940;2023-09-12T00:11:23;8.63;;;4.45;;
65753;SDS011;69207;47.502;18.940;2023-09-12T00:12:29;9.43;;;4.47;;
65753;SDS011;69207;47.502;18.940;2023-09-12T00:13:32;7.43;;;4.05;;
65753;SDS011;69207;47.502;18.940;2023-09-12T00:14:35;6.22;;;4.18;;
65753;SDS011;69207;47.502;18.940;2023-09-12T00:15:38;8.30;;;4.25;;
65753;SDS011;69207;47.502;18.940;2023-09-12T00:16:41;8.20;;;4.37;;
65753;SDS011;69207;47.502;18.940;2023-09-12T00:17:44;9.77;;;4.35;;
65753;SDS011;69207;47.502;18.940;2023-09-12T00:18:47;6.15;;;3.80;;
65753;SDS011;69207;47.502;18.940;2023-09-12T00:19:51;7.30;;;4.15;;
65753;SDS011;69207;47.502;18.940;2023-09-12T00:20:54;8.75;;;4.65;;
65753;SDS011;69207;47.502;18.940;2023-09-12T00:21:57;7.20;;;4.32;;
65753;SDS011;69207;47.502;18.940;2023-09-12T00:23:00;7.72;;;4.12;;
65753;SDS011;69207;47.502;18.940;2023-09-12T00:24:03;6.87;;;4.07;;
65753;SDS011;69207;47.502;18.940;2023-09-12T00:25:06;8.13;;;4.28;;
65753;SDS011;69207;47.502;18.940;2023-09-12T00:26:09;10.77;;;4.35;;
65753;SDS011;69207;47.502;18.940;2023-09-12T00:27:12;11.25;;;4.28;;
65753;SDS011;69207;47.502;18.940;2023-09-12T00:28:15;9.57;;;4.37;;
65753;SDS011;69207;47.502;18.940;2023-09-12T00:29:18;14.07;;;5.22;;
65753;SDS011;69207;47.502;18.940;2023-09-12T00:30:21;10.25;;;4.20;;
65753;SDS011;69207;47.502;18.940;2023-09-12T00:31:24;6.18;;;4.03;;
65753;SDS011;69207;47.502;18.940;2023-09-12T00:32:27;10.25;;;4.20;;
65753;SDS011;69207;47.502;18.940;2023-09-12T00:33:30;7.22;;;4.10;;
65753;SDS011;69207;47.502;18.940;2023-09-12T00:34:33;8.23;;;4.60;;
65753;SDS011;69207;47.502;18.940;2023-09-12T00:35:36;9.95;;;4.37;;
65753;SDS011;69207;47.502;18.940;2023-09-12T00:36:39;5.97;;;4.35;;
65753;SDS011;69207;47.502;18.940;2023-09-12T00:37:42;7.75;;;4.35;;
65753;SDS011;69207;47.502;18.940;2023-09-12T00:38:45;7.07;;;4.70;;
65753;SDS011;69207;47.502;18.940;2023-09-12T00:39:48;9.02;;;4.50;;
65753;SDS011;69207;47.502;18.940;2023-09-12T00:40:51;8.88;;;4.30;;
65753;SDS011;69207;47.502;18.940;2023-09-12T00:41:54;11.77;;;4.40;;
65753;SDS011;69207;47.502;18.940;2023-09-12T00:42:57;10.90;;;4.50;;
65753;SDS011;69207;47.502;18.940;2023-09-12T00:44:01;11.00;;;4.40;;
65753;SDS011;69207;47.502;18.940;2023-09-12T00:45:04;8.32;;;4.53;;
65753;SDS011;69207;47.502;18.940;2023-09-12T00:46:08;12.65;;;5.07;;
65753;SDS011;69207;47.502;18.940;2023-09-12T00:47:11;11.52;;;4.75;;
65753;SDS011;69207;47.502;18.940;2023-09-12T00:48:14;7.57;;;4.62;;
65753;SDS011;69207;47.502;18.940;2023-09-12T00:49:19;8.23;;;4.60;;
65753;SDS011;69207;47.502;18.940;2023-09-12T00:50:25;6.80;;;4.68;;
65753;SDS011;69207;47.502;18.940;2023-09-12T00:51:29;15.27;;;4.68;;
65753;SDS011;69207;47.502;18.940;2023-09-12T00:52:34;8.60;;;4.32;;
65753;SDS011;69207;47.502;18.940;2023-09-12T00:53:38;10.75;;;4.40;;
65753;SDS011;69207;47.502;18.940;2023-09-12T00:54:41;7.85;;;4.60;;
65753;SDS011;69207;47.502;18.940;2023-09-12T00:55:45;7.97;;;4.00;;
65753;SDS011;69207;47.502;18.940;2023-09-12T00:56:53;14.70;;;4.68;;
65753;SDS011;69207;47.502;18.940;2023-09-12T00:57:56;6.30;;;4.40;;
65753;SDS011;69207;47.502;18.940;2023-09-12T00:59:00;7.93;;;4.30;;
65753;SDS011;69207;47.502;18.940;2023-09-12T01:00:04;9.15;;;4.32;;
65753;SDS011;69207;47.502;18.940;2023-09-12T01:01:15;7.62;;;4.12;;
65753;SDS011;69207;47.502;18.940;2023-09-12T01:02:18;7.60;;;4.05;;
65753;SDS011;69207;47.502;18.940;2023-09-12T01:03:22;10.23;;;4.90;;
65753;SDS011;69207;47.502;18.940;2023-09-12T01:04:25;8.48;;;3.83;;
65753;SDS011;69207;47.502;18.940;2023-09-12T01:05:36;12.93;;;4.45;;
65753;SDS011;69207;47.502;18.940;2023-09-12T01:06:40;9.43;;;4.07;;
65753;SDS011;69207;47.502;18.940;2023-09-12T01:07:43;7.05;;;4.43;;
65753;SDS011;69207;47.502;18.940;2023-09-12T01:08:47;9.63;;;4.30;;
65753;SDS011;69207;47.502;18.940;2023-09-12T01:09:50;7.43;;;3.90;;
65753;SDS011;69207;47.502;18.940;2023-09-12T01:10:53;7.28;;;4.25;;
65753;SDS011;69207;47.502;18.940;2023-09-12T01:12:02;12.35;;;4.68;;
65753;SDS011;69207;47.502;18.940;2023-09-12T01:13:06;10.15;;;4.55;;
65753;SDS011;69207;47.502;18.940;2023-09-12T01:14:08;8.20;;;4.10;;
65753;SDS011;69207;47.502;18.940;2023-09-12T01:15:11;11.52;;;4.15;;
65753;SDS011;69207;47.502;18.940;2023-09-12T01:16:16;11.07;;;4.40;;
65753;SDS011;69207;47.502;18.940;2023-09-12T01:17:19;10.27;;;4.28;;
65753;SDS011;69207;47.502;18.940;2023-09-12T01:18:22;12.23;;;4.12;;
65753;SDS011;69207;47.502;18.940;2023-09-12T01:19:25;13.27;;;4.30;;
65753;SDS011;69207;47.502;18.940;2023-09-12T01:20:28;8.98;;;4.50;;
65753;SDS011;69207;47.502;18.940;2023-09-12T01:21:49;13.32;;;4.90;;
65753;SDS011;69207;47.502;18.940;2023-09-12T01:27:22;6.87;;;4.10;;
65753;SDS011;69207;47.502;18.940;2023-09-12T01:28:30;7.10;;;4.30;;
65753;SDS011;69207;47.502;18.940;2023-09-12T01:29:39;10.23;;;4.50;;
65753;SDS011;69207;47.502;18.940;2023-09-12T01:30:45;7.47;;;4.00;;
65753;SDS011;69207;47.502;18.940;2023-09-12T01:31:51;8.95;;;4.30;;
65753;SDS011;69207;47.502;18.940;2023-09-12T01:32:56;12.90;;;4.50;;
65753;SDS011;69207;47.502;18.940;2023-09-12T01:34:08;8.02;;;4.25;;
65753;SDS011;69207;47.502;18.940;2023-09-12T01:35:13;10.65;;;4.00;;
65753;SDS011;69207;47.502;18.940;2023-09-12T01:36:16;7.07;;;4.43;;
65753;SDS011;69207;47.502;18.940;2023-09-12T01:37:18;6.97;;;3.85;;
65753;SDS011;69207;47.502;18.940;2023-09-12T01:38:21;12.55;;;3.92;;
65753;SDS011;69207;47.502;18.940;2023-09-12T01:39:24;11.55;;;4.80;;
65753;SDS011;69207;47.502;18.940;2023-09-12T01:40:33;6.90;;;4.12;;
65753;SDS011;69207;47.502;18.940;2023-09-12T01:41:41;8.23;;;4.32;;
65753;SDS011;69207;47.502;18.940;2023-09-12T01:42:48;8.88;;;4.55;;
65753;SDS011;69207;47.502;18.940;2023-09-12T01:43:54;11.00;;;3.87;;
65753;SDS011;69207;47.502;18.940;2023-09-12T01:44:58;12.80;;;4.45;;
65753;SDS011;69207;47.502;18.940;2023-09-12T01:46:02;9.40;;;3.97;;
65753;SDS011;69207;47.502;18.940;2023-09-12T01:47:05;8.25;;;4.00;;
65753;SDS011;69207;47.502;18.940;2023-09-12T01:48:09;9.05;;;4.68;;
65753;SDS011;69207;47.502;18.940;2023-09-12T01:49:16;10.50;;;4.37;;
65753;SDS011;69207;47.502;18.940;2023-09-12T01:50:21;10.35;;;4.40;;
65753;SDS011;69207;47.502;18.940;2023-09-12T01:51:28;8.43;;;4.12;;
65753;SDS011;69207;47.502;18.940;2023-09-12T01:52:31;9.88;;;4.40;;
65753;SDS011;69207;47.502;18.940;2023-09-12T01:53:35;11.65;;;4.43;;
65753;SDS011;69207;47.502;18.940;2023-09-12T01:54:38;10.63;;;4.30;;
65753;SDS011;69207;47.502;18.940;2023-09-12T01:55:45;8.18;;;4.00;;
65753;SDS011;69207;47.502;18.940;2023-09-12T01:56:48;9.68;;;4.20;;
65753;SDS011;69207;47.502;18.940;2023-09-12T01:57:53;8.88;;;3.67;;
65753;SDS011;69207;47.502;18.940;2023-09-12T01:58:56;12.48;;;3.95;;
65753;SDS011;69207;47.502;18.940;2023-09-12T01:59:59;9.38;;;3.97;;
65753;SDS011;69207;47.502;18.940;2023-09-12T02:01:02;7.18;;;3.60;;
65753;SDS011;69207;47.502;18.940;2023-09-12T02:02:05;4.93;;;3.78;;
65753;SDS011;69207;47.502;18.940;2023-09-12T02:03:09;7.25;;;3.97;;
65753;SDS011;69207;47.502;18.940;2023-09-12T02:04:12;9.88;;;4.10;;
65753;SDS011;69207;47.502;18.940;2023-09-12T02:05:16;10.68;;;4.50;;
65753;SDS011;69207;47.502;18.940;2023-09-12T02:06:21;8.38;;;4.15;;
65753;SDS011;69207;47.502;18.940;2023-09-12T02:07:24;8.95;;;3.70;;
65753;SDS011;69207;47.502;18.940;2023-09-12T02:08:29;9.32;;;3.92;;
65753;SDS011;69207;47.502;18.940;2023-09-12T02:09:32;8.40;;;4.30;;
65753;SDS011;69207;47.502;18.940;2023-09-12T02:10:34;11.18;;;3.83;;
65753;SDS011;69207;47.502;18.940;2023-09-12T02:11:37;9.57;;;3.80;;
65753;SDS011;69207;47.502;18.940;2023-09-12T02:12:40;6.95;;;3.55;;
65753;SDS011;69207;47.502;18.940;2023-09-12T02:13:43;5.65;;;3.70;;
65753;SDS011;69207;47.502;18.940;2023-09-12T02:14:46;10.43;;;3.75;;
65753;SDS011;69207;47.502;18.940;2023-09-12T02:15:49;7.18;;;4.25;;
65753;SDS011;69207;47.502;18.940;2023-09-12T02:16:52;9.20;;;4.00;;
65753;SDS011;69207;47.502;18.940;2023-09-12T02:17:55;6.85;;;3.78;;
65753;SDS011;69207;47.502;18.940;2023-09-12T02:18:58;8.52;;;3.72;;
65753;SDS011;69207;47.502;18.940;2023-09-12T02:20:01;9.30;;;3.80;;
65753;SDS011;69207;47.502;18.940;2023-09-12T02:21:05;11.20;;;4.47;;
65753;SDS011;69207;47.502;18.940;2023-09-12T02:22:08;10.07;;;4.18;;
65753;SDS011;69207;47.502;18.940;2023-09-12T02:23:11;9.75;;;4.07;;
65753;SDS011;69207;47.502;18.940;2023-09-12T02:24:14;6.72;;;3.83;;
65753;SDS011;69207;47.502;18.940;2023-09-12T02:25:18;4.30;;;3.33;;
65753;SDS011;69207;47.502;18.940;2023-09-12T02:26:21;12.52;;;3.92;;
65753;SDS011;69207;47.502;18.940;2023-09-12T02:27:23;6.45;;;3.67;;
65753;SDS011;69207;47.502;18.940;2023-09-12T02:28:26;7.70;;;4.32;;
65753;SDS011;69207;47.502;18.940;2023-09-12T02:29:29;10.25;;;4.28;;
65753;SDS011;69207;47.502;18.940;2023-09-12T02:30:33;8.43;;;3.90;;
65753;SDS011;69207;47.502;18.940;2023-09-12T02:31:36;10.55;;;4.25;;
65753;SDS011;69207;47.502;18.940;2023-09-12T02:32:41;6.85;;;3.90;;
65753;SDS011;69207;47.502;18.940;2023-09-12T02:33:44;14.43;;;4.57;;
65753;SDS011;69207;47.502;18.940;2023-09-12T02:34:47;9.88;;;3.55;;
65753;SDS011;69207;47.502;18.940;2023-09-12T02:35:50;9.35;;;4.25;;
65753;SDS011;69207;47.502;18.940;2023-09-12T02:36:53;8.25;;;3.90;;
65753;SDS011;69207;47.502;18.940;2023-09-12T02:37:55;10.82;;;4.15;;
65753;SDS011;69207;47.502;18.940;2023-09-12T02:38:58;6.90;;;3.83;;
65753;SDS011;69207;47.502;18.940;2023-09-12T02:40:02;6.18;;;3.87;;
65753;SDS011;69207;47.502;18.940;2023-09-12T02:41:07;10.48;;;4.40;;
65753;SDS011;69207;47.502;18.940;2023-09-12T02:42:10;6.22;;;3.72;;
65753;SDS011;69207;47.502;18.940;2023-09-12T02:43:13;9.65;;;3.65;;
65753;SDS011;69207;47.502;18.940;2023-09-12T02:44:15;6.82;;;4.22;;
65753;SDS011;69207;47.502;18.940;2023-09-12T02:45:18;6.93;;;3.78;;
65753;SDS011;69207;47.502;18.940;2023-09-12T02:46:21;7.80;;;3.62;;
65753;SDS011;69207;47.502;18.940;2023-09-12T02:47:24;7.68;;;4.10;;
65753;SDS011;69207;47.502;18.940;2023-09-12T02:48:26;9.43;;;4.10;;
65753;SDS011;69207;47.502;18.940;2023-09-12T02:49:29;8.70;;;4.03;;
65753;SDS011;69207;47.502;18.940;2023-09-12T02:50:32;11.38;;;4.35;;
65753;SDS011;69207;47.502;18.940;2023-09-12T02:51:38;9.63;;;4.87;;
65753;SDS011;69207;47.502;18.940;2023-09-12T02:52:42;10.57;;;4.87;;
65753;SDS011;69207;47.502;18.940;2023-09-12T02:53:44;9.43;;;4.20;;
65753;SDS011;69207;47.502;18.940;2023-09-12T02:54:47;6.82;;;3.80;;
65753;SDS011;69207;47.502;18.940;2023-09-12T02:55:51;8.60;;;4.03;;
65753;SDS011;69207;47.502;18.940;2023-09-12T02:56:53;10.52;;;4.53;;
65753;SDS011;69207;47.502;18.940;2023-09-12T02:57:56;11.25;;;4.72;;
65753;SDS011;69207;47.502;18.940;2023-09-12T02:58:59;6.57;;;3.90;;
65753;SDS011;69207;47.502;18.940;2023-09-12T03:00:02;9.75;;;4.57;;
65753;SDS011;69207;47.502;18.940;2023-09-12T03:01:13;8.60;;;3.85;;
65753;SDS011;69207;47.502;18.940;2023-09-12T03:02:17;8.80;;;4.40;;
65753;SDS011;69207;47.502;18.940;2023-09-12T03:03:20;13.15;;;4.50;;
65753;SDS011;69207;47.502;18.940;2023-09-12T03:04:25;11.65;;;5.20;;
65753;SDS011;69207;47.502;18.940;2023-09-12T03:05:28;10.60;;;4.85;;
65753;SDS011;69207;47.502;18.940;2023-09-12T03:06:31;13.00;;;4.65;;
65753;SDS011;69207;47.502;18.940;2023-09-12T03:07:35;14.80;;;4.72;;
65753;SDS011;69207;47.502;18.940;2023-09-12T03:08:38;13.65;;;4.80;;
65753;SDS011;69207;47.502;18.940;2023-09-12T03:09:42;11.10;;;4.57;;
65753;SDS011;69207;47.502;18.940;2023-09-12T03:10:45;14.57;;;4.85;;
65753;SDS011;69207;47.502;18.940;2023-09-12T03:11:57;11.98;;;5.25;;
65753;SDS011;69207;47.502;18.940;2023-09-12T03:13:00;13.85;;;4.60;;
65753;SDS011;69207;47.502;18.940;2023-09-12T03:14:02;9.90;;;4.40;;
65753;SDS011;69207;47.502;18.940;2023-09-12T03:15:05;12.13;;;4.78;;
65753;SDS011;69207;47.502;18.940;2023-09-12T03:16:12;7.70;;;4.18;;
65753;SDS011;69207;47.502;18.940;2023-09-12T03:17:16;10.43;;;4.35;;
65753;SDS011;69207;47.502;18.940;2023-09-12T03:18:19;7.62;;;4.37;;
65753;SDS011;69207;47.502;18.940;2023-09-12T03:19:22;9.73;;;4.60;;
65753;SDS011;69207;47.502;18.940;2023-09-12T03:20:25;13.10;;;4.72;;
65753;SDS011;69207;47.502;18.940;2023-09-12T03:21:27;9.50;;;4.10;;
65753;SDS011;69207;47.502;18.940;2023-09-12T03:22:30;9.60;;;4.32;;
65753;SDS011;69207;47.502;18.940;2023-09-12T03:23:35;8.80;;;4.45;;
65753;SDS011;69207;47.502;18.940;2023-09-12T03:24:37;8.15;;;4.22;;
65753;SDS011;69207;47.502;18.940;2023-09-12T03:25:40;14.10;;;4.47;;
65753;SDS011;69207;47.502;18.940;2023-09-12T03:26:43;5.57;;;3.40;;
65753;SDS011;69207;47.502;18.940;2023-09-12T03:27:46;8.82;;;4.25;;
65753;SDS011;69207;47.502;18.940;2023-09-12T03:28:49;8.50;;;3.97;;
65753;SDS011;69207;47.502;18.940;2023-09-12T03:29:55;9.88;;;4.00;;
65753;SDS011;69207;47.502;18.940;2023-09-12T03:31:08;10.05;;;3.75;;
65753;SDS011;69207;47.502;18.940;2023-09-12T03:32:16;8.50;;;4.18;;
65753;SDS011;69207;47.502;18.940;2023-09-12T03:33:18;12.68;;;3.83;;
65753;SDS011;69207;47.502;18.940;2023-09-12T03:34:21;25.42;;;5.15;;
65753;SDS011;69207;47.502;18.940;2023-09-12T03:35:24;41.53;;;6.07;;
65753;SDS011;69207;47.502;18.940;2023-09-12T03:36:27;34.08;;;6.15;;
65753;SDS011;69207;47.502;18.940;2023-09-12T03:37:30;27.70;;;5.35;;
65753;SDS011;69207;47.502;18.940;2023-09-12T03:38:33;16.67;;;4.40;;
65753;SDS011;69207;47.502;18.940;2023-09-12T03:39:36;12.93;;;4.32;;
65753;SDS011;69207;47.502;18.940;2023-09-12T03:40:39;9.98;;;4.68;;
65753;SDS011;69207;47.502;18.940;2023-09-12T03:41:42;8.18;;;4.12;;
65753;SDS011;69207;47.502;18.940;2023-09-12T03:42:45;7.85;;;3.97;;
65753;SDS011;69207;47.502;18.940;2023-09-12T03:43:47;11.82;;;4.20;;
65753;SDS011;69207;47.502;18.940;2023-09-12T03:44:50;8.30;;;4.43;;
65753;SDS011;69207;47.502;18.940;2023-09-12T03:45:53;13.10;;;4.40;;
65753;SDS011;69207;47.502;18.940;2023-09-12T03:46:56;9.05;;;4.55;;
65753;SDS011;69207;47.502;18.940;2023-09-12T03:48:00;11.10;;;4.45;;
65753;SDS011;69207;47.502;18.940;2023-09-12T03:49:03;7.72;;;4.03;;
65753;SDS011;69207;47.502;18.940;2023-09-12T03:50:06;10.55;;;4.60;;
65753;SDS011;69207;47.502;18.940;2023-09-12T03:51:09;9.45;;;4.68;;
65753;SDS011;69207;47.502;18.940;2023-09-12T03:52:12;10.77;;;4.82;;
65753;SDS011;69207;47.502;18.940;2023-09-12T03:53:15;11.93;;;4.43;;
65753;SDS011;69207;47.502;18.940;2023-09-12T03:54:18;6.93;;;3.90;;
65753;SDS011;69207;47.502;18.940;2023-09-12T03:55:21;6.05;;;4.07;;
65753;SDS011;69207;47.502;18.940;2023-09-12T03:56:23;8.48;;;4.80;;
65753;SDS011;69207;47.502;18.940;2023-09-12T03:57:26;9.32;;;4.20;;
65753;SDS011;69207;47.502;18.940;2023-09-12T03:58:29;9.73;;;3.95;;
65753;SDS011;69207;47.502;18.940;2023-09-12T03:59:32;11.57;;;4.10;;
65753;SDS011;69207;47.502;18.940;2023-09-12T04:00:35;8.93;;;4.18;;
65753;SDS011;69207;47.502;18.940;2023-09-12T04:01:37;8.32;;;4.40;;
65753;SDS011;69207;47.502;18.940;2023-09-12T04:02:40;14.35;;;4.30;;
65753;SDS011;69207;47.502;18.940;2023-09-12T04:03:43;7.40;;;4.25;;
65753;SDS011;69207;47.502;18.940;2023-09-12T04:04:50;12.80;;;4.37;;
65753;SDS011;69207;47.502;18.940;2023-09-12T04:05:54;10.23;;;4.25;;
65753;SDS011;69207;47.502;18.940;2023-09-12T04:06:57;9.15;;;4.30;;
65753;SDS011;69207;47.502;18.940;2023-09-12T04:08:00;10.45;;;4.50;;
65753;SDS011;69207;47.502;18.940;2023-09-12T04:09:03;8.98;;;4.20;;
65753;SDS011;69207;47.502;18.940;2023-09-12T04:10:05;11.98;;;4.30;;
65753;SDS011;69207;47.502;18.940;2023-09-12T04:11:09;7.95;;;4.32;;
65753;SDS011;69207;47.502;18.940;2023-09-12T04:12:13;7.45;;;3.75;;
65753;SDS011;69207;47.502;18.940;2023-09-12T04:13:15;9.52;;;4.35;;
65753;SDS011;69207;47.502;18.940;2023-09-12T04:14:18;9.15;;;4.53;;
65753;SDS011;69207;47.502;18.940;2023-09-12T04:15:23;5.75;;;3.92;;
65753;SDS011;69207;47.502;18.940;2023-09-12T04:16:26;5.75;;;4.07;;
65753;SDS011;69207;47.502;18.940;2023-09-12T04:17:29;6.40;;;4.05;;
65753;SDS011;69207;47.502;18.940;2023-09-12T04:18:32;7.30;;;4.30;;
65753;SDS011;69207;47.502;18.940;2023-09-12T04:19:35;17.92;;;4.47;;
65753;SDS011;69207;47.502;18.940;2023-09-12T04:20:38;9.85;;;4.60;;
65753;SDS011;69207;47.502;18.940;2023-09-12T04:21:41;8.05;;;4.68;;
65753;SDS011;69207;47.502;18.940;2023-09-12T04:22:44;7.72;;;4.03;;
65753;SDS011;69207;47.502;18.940;2023-09-12T04:23:47;8.15;;;4.55;;
65753;SDS011;69207;47.502;18.940;2023-09-12T04:24:50;8.35;;;4.57;;
65753;SDS011;69207;47.502;18.940;2023-09-12T04:25:53;6.55;;;4.30;;
65753;SDS011;69207;47.502;18.940;2023-09-12T04:26:56;8.55;;;4.22;;
65753;SDS011;69207;47.502;18.940;2023-09-12T04:27:58;9.50;;;4.65;;
65753;SDS011;69207;47.502;18.940;2023-09-12T04:29:01;8.68;;;4.62;;
65753;SDS011;69207;47.502;18.940;2023-09-12T04:30:04;7.32;;;4.28;;
65753;SDS011;69207;47.502;18.940;2023-09-12T04:31:08;7.57;;;4.43;;
65753;SDS011;69207;47.502;18.940;2023-09-12T04:32:10;10.10;;;4.72;;
65753;SDS011;69207;47.502;18.940;2023-09-12T04:33:13;8.13;;;4.72;;
65753;SDS011;69207;47.502;18.940;2023-09-12T04:34:16;6.37;;;4.20;;
65753;SDS011;69207;47.502;18.940;2023-09-12T04:35:19;6.85;;;4.30;;
65753;SDS011;69207;47.502;18.940;2023-09-12T04:36:22;8.73;;;4.80;;
65753;SDS011;69207;47.502;18.940;2023-09-12T04:37:25;9.93;;;4.93;;
65753;SDS011;69207;47.502;18.940;2023-09-12T04:38:28;8.10;;;4.53;;
65753;SDS011;69207;47.502;18.940;2023-09-12T04:39:31;9.57;;;4.47;;
65753;SDS011;69207;47.502;18.940;2023-09-12T04:40:34;7.12;;;4.40;;
65753;SDS011;69207;47.502;18.940;2023-09-12T04:41:37;6.50;;;4.30;;
65753;SDS011;69207;47.502;18.940;2023-09-12T04:42:39;8.65;;;4.32;;
65753;SDS011;69207;47.502;18.940;2023-09-12T04:43:45;10.85;;;4.68;;
65753;SDS011;69207;47.502;18.940;2023-09-12T04:44:48;9.13;;;4.32;;
65753;SDS011;69207;47.502;18.940;2023-09-12T04:45:51;10.05;;;4.20;;
65753;SDS011;69207;47.502;18.940;2023-09-12T04:46:53;7.32;;;4.10;;
65753;SDS011;69207;47.502;18.940;2023-09-12T04:47:56;10.32;;;4.37;;
65753;SDS011;69207;47.502;18.940;2023-09-12T04:48:59;8.73;;;4.37;;
65753;SDS011;69207;47.502;18.940;2023-09-12T04:50:02;9.73;;;4.20;;
65753;SDS011;69207;47.502;18.940;2023-09-12T04:51:05;8.18;;;4.28;;
65753;SDS011;69207;47.502;18.940;2023-09-12T04:52:08;9.23;;;4.25;;
65753;SDS011;69207;47.502;18.940;2023-09-12T04:53:11;8.48;;;4.43;;
65753;SDS011;69207;47.502;18.940;2023-09-12T04:54:14;9.95;;;4.20;;
65753;SDS011;69207;47.502;18.940;2023-09-12T04:55:16;8.45;;;4.45;;
65753;SDS011;69207;47.502;18.940;2023-09-12T04:56:19;9.23;;;4.60;;
65753;SDS011;69207;47.502;18.940;2023-09-12T04:57:22;10.32;;;4.60;;
65753;SDS011;69207;47.502;18.940;2023-09-12T04:58:25;9.73;;;4.72;;
65753;SDS011;69207;47.502;18.940;2023-09-12T04:59:28;8.70;;;4.45;;
65753;SDS011;69207;47.502;18.940;2023-09-12T05:00:30;9.07;;;4.22;;
65753;SDS011;69207;47.502;18.940;2023-09-12T05:01:34;9.43;;;4.30;;
65753;SDS011;69207;47.502;18.940;2023-09-12T05:02:37;9.40;;;4.55;;
65753;SDS011;69207;47.502;18.940;2023-09-12T05:03:40;8.23;;;5.00;;
65753;SDS011;69207;47.502;18.940;2023-09-12T05:04:42;7.93;;;4.55;;
65753;SDS011;69207;47.502;18.940;2023-09-12T05:05:46;13.18;;;4.80;;
65753;SDS011;69207;47.502;18.940;2023-09-12T05:06:50;7.87;;;4.87;;
65753;SDS011;69207;47.502;18.940;2023-09-12T05:07:53;9.85;;;4.12;;
65753;SDS011;69207;47.502;18.940;2023-09-12T05:08:55;7.93;;;4.55;;
65753;SDS011;69207;47.502;18.940;2023-09-12T05:09:58;13.05;;;5.10;;
65753;SDS011;69207;47.502;18.940;2023-09-12T05:11:01;18.87;;;4.43;;
65753;SDS011;69207;47.502;18.940;2023-09-12T05:12:05;17.40;;;5.60;;
65753;SDS011;69207;47.502;18.940;2023-09-12T05:13:08;16.20;;;5.00;;
65753;SDS011;69207;47.502;18.940;2023-09-12T05:14:10;12.65;;;5.00;;
65753;SDS011;69207;47.502;18.940;2023-09-12T05:15:13;21.33;;;5.47;;
65753;SDS011;69207;47.502;18.940;2023-09-12T05:16:17;10.98;;;5.25;;
65753;SDS011;69207;47.502;18.940;2023-09-12T05:17:20;13.98;;;4.75;;
65753;SDS011;69207;47.502;18.940;2023-09-12T05:18:23;7.82;;;4.87;;
65753;SDS011;69207;47.502;18.940;2023-09-12T05:19:26;9.63;;;4.85;;
65753;SDS011;69207;47.502;18.940;2023-09-12T05:20:29;10.50;;;4.35;;
65753;SDS011;69207;47.502;18.940;2023-09-12T05:21:31;9.88;;;4.85;;
65753;SDS011;69207;47.502;18.940;2023-09-12T05:22:34;12.30;;;5.03;;
65753;SDS011;69207;47.502;18.940;2023-09-12T05:23:37;12.48;;;4.97;;
65753;SDS011;69207;47.502;18.940;2023-09-12T05:24:40;18.33;;;4.87;;
65753;SDS011;69207;47.502;18.940;2023-09-12T05:25:43;15.30;;;5.00;;
65753;SDS011;69207;47.502;18.940;2023-09-12T05:26:45;20.77;;;6.15;;
65753;SDS011;69207;47.502;18.940;2023-09-12T05:27:52;17.65;;;4.97;;
65753;SDS011;69207;47.502;18.940;2023-09-12T05:28:55;23.33;;;4.85;;
65753;SDS011;69207;47.502;18.940;2023-09-12T05:29:58;17.05;;;5.00;;
65753;SDS011;69207;47.502;18.940;2023-09-12T05:31:01;15.63;;;5.15;;
65753;SDS011;69207;47.502;18.940;2023-09-12T05:32:05;12.85;;;4.85;;
65753;SDS011;69207;47.502;18.940;2023-09-12T05:33:08;13.00;;;4.82;;
65753;SDS011;69207;47.502;18.940;2023-09-12T05:34:11;9.65;;;4.53;;
65753;SDS011;69207;47.502;18.940;2023-09-12T05:35:13;12.73;;;5.68;;
65753;SDS011;69207;47.502;18.940;2023-09-12T05:36:23;8.65;;;4.97;;
65753;SDS011;69207;47.502;18.940;2023-09-12T05:37:27;7.18;;;4.87;;
65753;SDS011;69207;47.502;18.940;2023-09-12T05:38:30;14.13;;;5.03;;
65753;SDS011;69207;47.502;18.940;2023-09-12T05:39:33;9.25;;;5.37;;
65753;SDS011;69207;47.502;18.940;2023-09-12T05:40:36;9.00;;;4.93;;
65753;SDS011;69207;47.502;18.940;2023-09-12T05:41:39;11.63;;;5.05;;
65753;SDS011;69207;47.502;18.940;2023-09-12T05:42:42;15.00;;;5.45;;
65753;SDS011;69207;47.502;18.940;2023-09-12T05:43:45;9.70;;;4.85;;
65753;SDS011;69207;47.502;18.940;2023-09-12T05:44:48;11.63;;;4.87;;
65753;SDS011;69207;47.502;18.940;2023-09-12T05:46:01;12.15;;;5.03;;
65753;SDS011;69207;47.502;18.940;2023-09-12T05:47:04;8.65;;;5.00;;
65753;SDS011;69207;47.502;18.940;2023-09-12T05:48:09;10.38;;;5.10;;
65753;SDS011;69207;47.502;18.940;2023-09-12T05:49:12;10.65;;;5.10;;
65753;SDS011;69207;47.502;18.940;2023-09-12T05:50:16;10.23;;;5.57;;
65753;SDS011;69207;47.502;18.940;2023-09-12T05:51:18;10.88;;;4.87;;
65753;SDS011;69207;47.502;18.940;2023-09-12T05:52:21;7.85;;;5.05;;
65753;SDS011;69207;47.502;18.940;2023-09-12T05:53:24;7.62;;;4.70;;
65753;SDS011;69207;47.502;18.940;2023-09-12T05:54:27;6.90;;;5.03;;
65753;SDS011;69207;47.502;18.940;2023-09-12T05:55:29;13.10;;;4.80;;
65753;SDS011;69207;47.502;18.940;2023-09-12T05:56:32;12.50;;;5.65;;
65753;SDS011;69207;47.502;18.940;2023-09-12T05:57:35;9.00;;;5.47;;
65753;SDS011;69207;47.502;18.940;2023-09-12T05:58:38;10.10;;;5.15;;
65753;SDS011;69207;47.502;18.940;2023-09-12T05:59:45;15.90;;;5.62;;
65753;SDS011;69207;47.502;18.940;2023-09-12T06:00:48;7.78;;;5.80;;
65753;SDS011;69207;47.502;18.940;2023-09-12T06:01:51;7.85;;;5.15;;
65753;SDS011;69207;47.502;18.940;2023-09-12T06:02:54;9.20;;;5.20;;
65753;SDS011;69207;47.502;18.940;2023-09-12T06:03:57;11.38;;;5.22;;
65753;SDS011;69207;47.502;18.940;2023-09-12T06:05:00;18.25;;;5.15;;
65753;SDS011;69207;47.502;18.940;2023-09-12T06:06:03;11.48;;;5.22;;
65753;SDS011;69207;47.502;18.940;2023-09-12T06:07:06;11.93;;;5.62;;
65753;SDS011;69207;47.502;18.940;2023-09-12T06:08:09;12.88;;;5.57;;
65753;SDS011;69207;47.502;18.940;2023-09-12T06:09:11;9.68;;;4.82;;
65753;SDS011;69207;47.502;18.940;2023-09-12T06:10:15;10.40;;;5.28;;
65753;SDS011;69207;47.502;18.940;2023-09-12T06:11:17;8.13;;;4.97;;
65753;SDS011;69207;47.502;18.940;2023-09-12T06:12:20;7.90;;;4.97;;
65753;SDS011;69207;47.502;18.940;2023-09-12T06:13:23;9.27;;;4.90;;
65753;SDS011;69207;47.502;18.940;2023-09-12T06:14:27;12.27;;;5.37;;
65753;SDS011;69207;47.502;18.940;2023-09-12T06:15:30;8.52;;;5.15;;
65753;SDS011;69207;47.502;18.940;2023-09-12T06:16:33;11.48;;;5.07;;
65753;SDS011;69207;47.502;18.940;2023-09-12T06:17:36;9.73;;;5.18;;
65753;SDS011;69207;47.502;18.940;2023-09-12T06:18:39;11.18;;;5.32;;
65753;SDS011;69207;47.502;18.940;2023-09-12T06:19:43;10.50;;;5.10;;